createdAt,value
2018-12-14T00:00:25.667Z,127.58
2018-12-14T00:02:56.116Z,121.90
2018-12-14T00:05:27.408Z,115.62
2018-12-14T00:07:55.939Z,115.57
2018-12-14T00:10:24.225Z,110.15
2018-12-14T00:12:53.742Z,115.35
2018-12-14T00:15:22.048Z,104.20
2018-12-14T00:17:50.269Z,110.32
2018-12-14T00:20:18.571Z,102.92
2018-12-14T00:22:46.846Z,95.65
2018-12-14T00:25:15.116Z,98.17
2018-12-14T00:27:43.358Z,94.20
2018-12-14T00:30:17.024Z,87.42
2018-12-14T00:32:48.925Z,90.00
2018-12-14T00:35:17.235Z,80.60
2018-12-14T00:37:45.512Z,88.58
2018-12-14T00:40:13.732Z,73.22
2018-12-14T00:42:42.014Z,79.70
2018-12-14T00:45:11.948Z,68.57
2018-12-14T00:47:40.207Z,69.00
2018-12-14T00:50:08.855Z,70.12
2018-12-14T00:52:37.185Z,62.75
2018-12-14T00:55:06.418Z,63.00
2018-12-14T00:57:34.559Z,71.70
2018-12-14T01:00:03.799Z,69.87
2018-12-14T01:02:33.185Z,71.10
2018-12-14T01:05:18.237Z,70.55
2018-12-14T01:07:46.504Z,69.75
2018-12-14T01:10:15.983Z,72.03
2018-12-14T01:12:44.301Z,73.42
2018-12-14T01:15:13.145Z,68.83
2018-12-14T01:17:42.879Z,71.05
2018-12-14T01:20:11.327Z,70.03
2018-12-14T01:22:39.835Z,61.37
2018-12-14T01:25:07.979Z,62.73
2018-12-14T01:27:36.369Z,63.13
2018-12-14T01:30:05.168Z,66.67
2018-12-14T01:32:33.280Z,58.30
2018-12-14T01:35:01.364Z,56.95
2018-12-14T01:37:29.492Z,58.40
2018-12-14T01:39:57.751Z,54.90
2018-12-14T01:42:28.094Z,64.10
2018-12-14T01:44:56.419Z,58.28
2018-12-14T01:47:24.611Z,51.65
2018-12-14T01:49:52.912Z,50.73
2018-12-14T01:52:22.311Z,46.02
2018-12-14T01:54:51.291Z,54.18
2018-12-14T01:57:20.457Z,49.40
2018-12-14T01:59:48.901Z,53.65
2018-12-14T02:02:17.143Z,58.90
2018-12-14T02:04:46.319Z,56.77
2018-12-14T02:07:14.534Z,53.50
2018-12-14T02:09:43.240Z,53.48
2018-12-14T02:12:11.670Z,53.08
2018-12-14T02:14:40.182Z,47.50
2018-12-14T02:17:08.441Z,46.23
2018-12-14T02:19:36.737Z,45.17
2018-12-14T02:22:05.000Z,49.30
2018-12-14T02:24:33.296Z,40.98
2018-12-14T02:27:01.400Z,44.73
2018-12-14T02:29:29.807Z,44.23
2018-12-14T02:31:58.097Z,45.63
2018-12-14T02:34:26.215Z,43.75
2018-12-14T02:36:54.672Z,43.78
2018-12-14T02:39:22.786Z,42.15
2018-12-14T02:41:52.167Z,36.60
2018-12-14T02:44:20.303Z,39.15
2018-12-14T02:46:48.612Z,42.90
2018-12-14T02:49:16.873Z,30.30
2018-12-14T02:51:44.911Z,34.23
2018-12-14T02:54:13.408Z,34.60
2018-12-14T02:56:41.674Z,39.83
2018-12-14T02:59:09.948Z,40.28
2018-12-14T03:01:38.233Z,34.15
2018-12-14T03:04:06.501Z,39.03
2018-12-14T03:06:34.756Z,38.50
2018-12-14T03:09:05.107Z,36.88
2018-12-14T03:11:33.404Z,39.50
2018-12-14T03:14:01.700Z,42.83
2018-12-14T03:16:29.941Z,38.80
2018-12-14T03:18:58.232Z,41.60
2018-12-14T03:21:26.501Z,40.90
2018-12-14T03:23:54.607Z,40.85
2018-12-14T03:26:23.075Z,42.78
2018-12-14T03:28:51.303Z,36.60
2018-12-14T03:31:19.589Z,41.90
2018-12-14T03:33:47.915Z,37.80
2018-12-14T03:36:17.423Z,37.88
2018-12-14T03:38:45.638Z,37.58
2018-12-14T03:41:13.913Z,35.28
2018-12-14T03:43:42.249Z,41.23
2018-12-14T03:46:10.499Z,36.58
2018-12-14T03:48:38.767Z,35.60
2018-12-14T03:51:06.875Z,27.75
2018-12-14T03:53:36.269Z,35.98
2018-12-14T03:56:04.408Z,34.33
2018-12-14T03:58:32.694Z,32.80
2018-12-14T04:01:00.935Z,37.58
2018-12-14T04:03:29.240Z,38.92
2018-12-14T04:05:57.529Z,35.20
2018-12-14T04:08:25.771Z,37.93
2018-12-14T04:10:54.072Z,33.75
2018-12-14T04:13:22.330Z,38.20
2018-12-14T04:15:50.604Z,35.83
2018-12-14T04:18:19.817Z,36.95
2018-12-14T04:20:47.996Z,39.90
2018-12-14T04:23:16.263Z,36.73
2018-12-14T04:25:45.782Z,37.35
2018-12-14T04:28:15.044Z,36.03
2018-12-14T04:31:00.052Z,33.13
2018-12-14T04:33:28.424Z,35.05
2018-12-14T04:35:56.710Z,42.30
2018-12-14T04:38:27.240Z,35.90
2018-12-14T04:40:55.499Z,34.58
2018-12-14T04:43:23.784Z,41.13
2018-12-14T04:45:52.065Z,40.58
2018-12-14T04:48:20.288Z,37.95
2018-12-14T04:50:48.593Z,37.98
2018-12-14T04:53:16.867Z,36.25
2018-12-14T04:55:45.172Z,36.60
2018-12-14T04:58:13.412Z,35.63
2018-12-14T05:00:41.694Z,39.18
2018-12-14T05:03:09.815Z,36.10
2018-12-14T05:08:31.122Z,37.80
2018-12-14T05:10:59.227Z,38.50
2018-12-14T05:13:28.288Z,27.58
2018-12-14T05:15:56.741Z,30.80
2018-12-14T05:18:26.239Z,30.10
2018-12-14T05:20:55.470Z,30.82
2018-12-14T05:23:23.679Z,27.32
2018-12-14T05:25:51.940Z,28.75
2018-12-14T05:31:19.576Z,28.95
2018-12-14T05:33:47.712Z,23.27
2018-12-14T05:36:16.166Z,21.12
2018-12-14T05:38:44.454Z,24.47
2018-12-14T05:41:13.975Z,22.27
2018-12-14T05:43:42.264Z,23.62
2018-12-14T05:46:10.463Z,21.87
2018-12-14T05:48:39.969Z,22.65
2018-12-14T05:51:09.460Z,22.37
2018-12-14T05:53:37.766Z,20.82
2018-12-14T05:56:06.032Z,24.23
2018-12-14T05:58:35.118Z,27.25
2018-12-14T06:01:03.387Z,22.60
2018-12-14T06:03:31.704Z,25.70
2018-12-14T06:06:01.254Z,21.42
2018-12-14T06:08:29.470Z,20.70
2018-12-14T06:10:57.742Z,24.67
2018-12-14T06:13:26.507Z,26.55
2018-12-14T06:15:54.625Z,22.80
2018-12-14T06:18:22.982Z,22.70
2018-12-14T06:20:51.261Z,23.45
2018-12-14T06:23:21.390Z,31.65
2018-12-14T06:25:49.842Z,26.02
2018-12-14T06:31:13.052Z,20.08
2018-12-14T06:33:41.175Z,25.70
2018-12-14T06:36:10.362Z,27.22
2018-12-14T06:38:38.718Z,25.45
2018-12-14T06:41:06.980Z,23.05
2018-12-14T06:43:35.213Z,25.08
2018-12-14T06:46:03.563Z,25.82
2018-12-14T06:48:31.783Z,25.72
2018-12-14T06:51:00.842Z,23.18
2018-12-14T06:53:29.194Z,24.77
2018-12-14T06:55:57.403Z,22.65
2018-12-14T06:58:25.743Z,18.27
2018-12-14T07:00:54.004Z,23.98
2018-12-14T07:03:23.493Z,21.87
2018-12-14T07:05:51.763Z,24.02
2018-12-14T07:08:19.937Z,26.82
2018-12-14T07:10:48.326Z,20.97
2018-12-14T07:13:21.942Z,28.12
2018-12-14T07:15:48.119Z,22.73
2018-12-14T07:18:16.479Z,19.82
2018-12-14T07:20:44.739Z,26.85
2018-12-14T07:23:12.946Z,23.18
2018-12-14T07:25:42.077Z,22.67
2018-12-14T07:28:10.349Z,21.80
2018-12-14T07:30:38.699Z,26.90
2018-12-14T07:33:06.938Z,25.08
2018-12-14T07:35:35.142Z,21.85
2018-12-14T07:38:04.094Z,22.85
2018-12-14T07:40:32.606Z,24.15
2018-12-14T07:43:01.279Z,25.85
2018-12-14T07:45:29.451Z,27.35
2018-12-14T07:47:57.765Z,23.25
2018-12-14T07:50:26.927Z,21.65
2018-12-14T07:52:58.039Z,24.40
2018-12-14T07:55:27.589Z,26.23
2018-12-14T07:57:56.738Z,26.40
2018-12-14T08:00:24.909Z,25.48
2018-12-14T08:02:53.175Z,24.80
2018-12-14T08:05:21.552Z,24.55
2018-12-14T08:07:49.714Z,24.65
2018-12-14T08:10:18.057Z,26.07
2018-12-14T08:12:46.614Z,31.02
2018-12-14T08:15:15.576Z,32.48
2018-12-14T08:17:47.752Z,33.80
2018-12-14T08:20:17.230Z,30.90
2018-12-14T08:22:45.965Z,32.98
2018-12-14T08:25:14.079Z,29.30
2018-12-14T08:27:45.843Z,29.75
2018-12-14T08:30:14.613Z,30.25
2018-12-14T08:32:44.011Z,27.62
2018-12-14T08:35:12.240Z,28.07
2018-12-14T08:37:40.515Z,29.20
2018-12-14T08:40:08.948Z,24.45
2018-12-14T08:42:37.047Z,29.98
2018-12-14T08:45:05.812Z,31.80
2018-12-14T08:47:34.231Z,27.42
2018-12-14T08:50:04.106Z,30.55
2018-12-14T08:52:32.611Z,27.93
2018-12-14T08:55:00.879Z,26.07
2018-12-14T08:57:29.995Z,31.20
2018-12-14T08:59:58.332Z,26.10
2018-12-14T09:02:26.565Z,27.22
2018-12-14T09:04:54.826Z,28.32
2018-12-14T09:07:24.759Z,31.93
2018-12-14T09:09:56.733Z,30.25
2018-12-14T09:12:25.002Z,33.95
2018-12-14T09:14:53.128Z,36.48
2018-12-14T09:17:21.267Z,29.82
2018-12-14T09:19:50.481Z,27.42
2018-12-14T09:22:18.913Z,26.93
2018-12-14T09:24:47.044Z,25.25
2018-12-14T09:27:15.414Z,25.97
2018-12-14T09:29:43.524Z,27.62
2018-12-14T09:32:12.016Z,28.20
2018-12-14T09:34:41.056Z,30.85
2018-12-14T09:37:09.404Z,35.48
2018-12-14T09:39:37.643Z,30.70
2018-12-14T09:42:07.179Z,30.90
2018-12-14T09:44:36.044Z,32.95
2018-12-14T09:47:04.914Z,33.35
2018-12-14T09:49:33.208Z,29.85
2018-12-14T09:52:01.495Z,36.42
2018-12-14T09:54:29.737Z,36.98
2018-12-14T09:56:58.036Z,32.48
2018-12-14T09:59:27.079Z,37.90
2018-12-14T10:01:55.432Z,37.20
2018-12-14T10:04:23.718Z,39.05
2018-12-14T10:06:51.965Z,33.42
2018-12-14T10:09:21.553Z,35.28
2018-12-14T10:11:55.150Z,33.85
2018-12-14T10:14:20.063Z,33.78
2018-12-14T10:16:48.163Z,33.48
2018-12-14T10:19:16.631Z,34.80
2018-12-14T10:21:44.875Z,41.02
2018-12-14T10:24:15.195Z,36.68
2018-12-14T10:26:43.511Z,41.37
2018-12-14T10:29:11.796Z,34.27
2018-12-14T10:31:40.058Z,27.60
2018-12-14T10:34:08.340Z,29.82
2018-12-14T10:36:36.598Z,30.65
2018-12-14T10:39:06.069Z,29.25
2018-12-14T10:41:34.445Z,27.60
2018-12-14T10:44:07.407Z,28.90
2018-12-14T10:46:32.981Z,30.37
2018-12-14T10:49:01.236Z,30.37
2018-12-14T10:51:29.776Z,28.42
2018-12-14T10:53:57.919Z,30.57
2018-12-14T10:56:26.115Z,27.05
2018-12-14T10:58:55.257Z,30.92
2018-12-14T11:01:30.113Z,27.87
2018-12-14T11:03:58.271Z,28.20
2018-12-14T11:06:26.648Z,29.32
2018-12-14T11:08:54.823Z,30.45
2018-12-14T11:11:23.107Z,30.57
2018-12-14T11:13:51.396Z,32.20
2018-12-14T11:16:19.676Z,27.67
2018-12-14T11:18:48.719Z,29.32
2018-12-14T11:21:17.491Z,28.12
2018-12-14T11:23:46.143Z,27.70
2018-12-14T11:26:14.394Z,31.68
2018-12-14T11:28:42.667Z,32.58
2018-12-14T11:31:10.941Z,30.85
2018-12-14T11:33:39.216Z,30.48
2018-12-14T11:36:07.543Z,32.25
2018-12-14T11:38:36.998Z,30.85
2018-12-14T11:41:05.306Z,35.90
2018-12-14T11:43:33.574Z,29.30
2018-12-14T11:46:01.888Z,35.33
2018-12-14T11:48:30.114Z,31.33
2018-12-14T11:51:00.404Z,31.75
2018-12-14T11:53:28.709Z,33.15
2018-12-14T11:55:57.545Z,31.27
2018-12-14T11:58:26.081Z,33.60
2018-12-14T12:00:55.583Z,36.05
2018-12-14T12:03:23.867Z,30.23
2018-12-14T12:05:52.139Z,40.63
2018-12-14T12:08:20.408Z,44.48
2018-12-14T12:10:49.963Z,30.43
2018-12-14T12:13:18.191Z,32.75
2018-12-14T12:15:46.547Z,33.00
2018-12-14T12:18:14.776Z,31.35
2018-12-14T12:20:43.847Z,37.28
2018-12-14T12:23:11.955Z,33.75
2018-12-14T12:25:40.420Z,38.13
2018-12-14T12:28:08.656Z,37.60
2018-12-14T12:30:37.862Z,38.83
2018-12-14T12:33:06.040Z,40.63
2018-12-14T12:35:34.119Z,37.25
2018-12-14T12:38:02.584Z,37.83
2018-12-14T12:40:30.875Z,33.73
2018-12-14T12:42:59.150Z,39.27
2018-12-14T12:48:08.818Z,35.08
2018-12-14T12:50:36.981Z,40.35
2018-12-14T12:53:05.483Z,38.10
2018-12-14T12:55:33.587Z,37.73
2018-12-14T12:58:01.933Z,44.05
2018-12-14T13:00:30.189Z,41.23
2018-12-14T13:02:58.447Z,39.13
2018-12-14T13:05:26.540Z,36.35
2018-12-14T13:07:54.999Z,40.05
2018-12-14T13:10:23.275Z,36.73
2018-12-14T13:12:51.444Z,42.78
2018-12-14T13:15:19.598Z,40.63
2018-12-14T13:17:48.164Z,36.17
2018-12-14T13:20:16.517Z,38.20
2018-12-14T13:22:44.625Z,34.18
2018-12-14T13:25:12.935Z,34.98
2018-12-14T13:27:41.216Z,41.85
2018-12-14T13:30:09.515Z,39.40
2018-12-14T13:32:37.776Z,38.00
2018-12-14T13:35:07.556Z,34.53
2018-12-14T13:37:35.991Z,38.02
2018-12-14T13:40:05.297Z,39.13
2018-12-14T13:42:33.782Z,40.58
2018-12-14T13:45:02.066Z,40.58
2018-12-14T13:47:31.534Z,55.75
2018-12-14T13:49:59.826Z,45.17
2018-12-14T13:52:29.237Z,46.48
2018-12-14T13:54:57.578Z,41.42
2018-12-14T13:57:26.727Z,42.55
2018-12-14T13:59:55.374Z,39.15
2018-12-14T14:02:23.456Z,37.50
2018-12-14T14:04:51.931Z,40.12
2018-12-14T14:07:20.190Z,41.25
2018-12-14T14:09:48.470Z,40.40
2018-12-14T14:12:16.731Z,44.15
2018-12-14T14:14:45.170Z,38.20
2018-12-14T14:17:13.322Z,40.45
2018-12-14T14:19:41.807Z,37.93
2018-12-14T14:22:10.410Z,51.55
2018-12-14T14:24:38.520Z,42.67
2018-12-14T14:27:06.572Z,45.48
2018-12-14T14:29:34.708Z,45.05
2018-12-14T14:32:04.207Z,54.38
2018-12-14T14:34:32.439Z,47.38
2018-12-14T14:37:00.776Z,53.33
2018-12-14T14:39:28.868Z,50.60
2018-12-14T14:41:57.304Z,49.60
2018-12-14T14:44:25.588Z,49.38
2018-12-14T14:46:53.835Z,48.78
2018-12-14T14:49:22.504Z,40.70
2018-12-14T14:51:50.935Z,44.48
2018-12-14T14:54:19.476Z,49.18
2018-12-14T14:56:47.828Z,48.73
2018-12-14T14:59:16.041Z,44.67
2018-12-14T15:01:44.373Z,48.00
2018-12-14T15:04:12.660Z,44.10
2018-12-14T15:06:40.896Z,47.38
2018-12-14T15:09:09.408Z,44.23
2018-12-14T15:11:39.063Z,47.27
2018-12-14T15:14:07.318Z,45.50
2018-12-14T15:16:35.563Z,42.80
2018-12-14T15:19:03.923Z,45.10
2018-12-14T15:21:32.168Z,44.10
2018-12-14T15:24:00.288Z,43.83
2018-12-14T15:26:28.419Z,40.65
2018-12-14T15:28:56.591Z,38.00
2018-12-14T15:31:24.706Z,48.02
2018-12-14T15:33:53.119Z,37.03
2018-12-14T15:36:21.480Z,29.42
2018-12-14T15:38:50.745Z,28.83
2018-12-14T15:41:19.236Z,29.23
2018-12-14T15:43:47.899Z,28.85
2018-12-14T15:47:19.373Z,25.52
2018-12-14T15:49:47.534Z,27.80
2018-12-14T15:52:16.698Z,31.25
2018-12-14T15:54:44.862Z,29.52
2018-12-14T15:57:13.175Z,25.32
2018-12-14T15:59:41.453Z,28.35
2018-12-14T16:02:09.733Z,27.82
2018-12-14T16:04:37.974Z,27.73
2018-12-14T16:07:06.264Z,26.65
2018-12-14T16:09:34.543Z,27.32
2018-12-14T16:12:02.807Z,29.35
2018-12-14T16:14:34.358Z,32.25
2018-12-14T16:17:01.394Z,36.38
2018-12-14T16:19:31.767Z,38.10
2018-12-14T16:22:00.040Z,37.17
2018-12-14T16:24:28.301Z,33.70
2018-12-14T16:26:56.543Z,36.40
2018-12-14T16:29:24.819Z,30.00
2018-12-14T16:31:52.930Z,34.80
2018-12-14T16:34:21.339Z,38.73
2018-12-14T16:36:49.688Z,32.58
2018-12-14T16:39:19.175Z,36.17
2018-12-14T16:41:47.422Z,36.65
2018-12-14T16:44:15.756Z,36.05
2018-12-14T16:46:44.014Z,28.73
2018-12-14T16:49:12.323Z,29.77
2018-12-14T16:51:40.581Z,26.70
2018-12-14T16:54:08.875Z,25.20
2018-12-14T16:56:37.285Z,25.43
2018-12-14T16:59:05.813Z,34.63
2018-12-14T17:01:35.337Z,22.42
2018-12-14T17:04:03.556Z,26.82
2018-12-14T17:06:31.935Z,21.73
2018-12-14T17:09:00.131Z,23.20
2018-12-14T17:11:28.412Z,22.32
2018-12-14T17:13:56.680Z,22.80
2018-12-14T17:16:24.932Z,25.62
2018-12-14T17:18:54.027Z,23.70
2018-12-14T17:21:22.336Z,28.70
2018-12-14T17:23:51.862Z,37.65
2018-12-14T17:26:20.176Z,37.48
2018-12-14T17:28:48.430Z,34.23
2018-12-14T17:31:16.509Z,38.53
2018-12-14T17:33:44.967Z,40.65
2018-12-14T17:36:14.076Z,36.03
2018-12-14T17:38:42.303Z,40.10
2018-12-14T17:41:10.592Z,35.98
2018-12-14T17:43:38.838Z,36.35
2018-12-14T17:46:07.145Z,40.43
2018-12-14T17:48:35.427Z,38.10
2018-12-14T17:51:03.724Z,34.38
2018-12-14T17:53:31.983Z,31.17
2018-12-14T17:56:01.472Z,29.65
2018-12-14T17:58:29.760Z,35.70
2018-12-14T18:00:58.492Z,30.27
2018-12-14T18:03:27.123Z,29.63
2018-12-14T18:05:56.605Z,25.68
2018-12-14T18:08:24.866Z,27.17
2018-12-14T18:10:53.182Z,24.60
2018-12-14T18:13:21.496Z,25.45
2018-12-14T18:15:49.750Z,21.80
2018-12-14T18:18:17.987Z,21.85
2018-12-14T18:20:46.296Z,24.87
2018-12-14T18:23:14.535Z,26.50
2018-12-14T18:25:42.865Z,22.35
2018-12-14T18:28:10.963Z,25.08
2018-12-14T18:30:39.385Z,22.60
2018-12-14T18:33:08.319Z,21.20
2018-12-14T18:35:36.746Z,20.85
2018-12-14T18:38:04.929Z,18.75
2018-12-14T18:40:33.054Z,20.50
2018-12-14T18:43:01.173Z,20.88
2018-12-14T18:45:29.434Z,21.75
2018-12-14T18:47:57.724Z,22.80
2018-12-14T18:50:25.955Z,21.42
2018-12-14T18:52:54.259Z,21.55
2018-12-14T18:55:22.559Z,22.93
2018-12-14T18:57:50.817Z,24.80
2018-12-14T19:00:19.127Z,22.85
2018-12-14T19:02:47.388Z,25.48
2018-12-14T19:05:15.664Z,29.72
2018-12-14T19:07:43.919Z,27.73
2018-12-14T19:10:12.205Z,24.32
2018-12-14T19:12:40.506Z,36.88
2018-12-14T19:15:08.871Z,41.88
2018-12-14T19:17:37.068Z,40.03
2018-12-14T19:20:05.915Z,38.75
2018-12-14T19:22:34.419Z,42.70
2018-12-14T19:25:02.864Z,32.98
2018-12-14T19:27:31.414Z,43.78
2018-12-14T19:29:59.627Z,37.98
2018-12-14T19:32:27.723Z,35.25
2018-12-14T19:34:56.165Z,30.72
2018-12-14T19:37:24.447Z,28.15
2018-12-14T19:39:52.750Z,29.60
2018-12-14T19:42:21.019Z,31.10
2018-12-14T19:44:49.279Z,33.13
2018-12-14T19:47:17.835Z,26.07
2018-12-14T19:49:46.968Z,27.48
2018-12-14T19:52:15.502Z,26.37
2018-12-14T19:54:44.197Z,26.20
2018-12-14T19:57:12.374Z,30.75
2018-12-14T19:59:40.584Z,25.00
2018-12-14T20:02:08.887Z,24.98
2018-12-14T20:04:37.184Z,25.45
2018-12-14T20:07:06.660Z,26.20
2018-12-14T20:09:34.963Z,25.92
2018-12-14T20:12:03.187Z,24.40
2018-12-14T20:14:31.464Z,25.85
2018-12-14T20:17:03.841Z,29.40
2018-12-14T20:19:32.147Z,29.32
2018-12-14T20:22:00.421Z,35.40
2018-12-14T20:24:29.576Z,28.32
2018-12-14T20:26:57.762Z,26.07
2018-12-14T20:29:26.035Z,25.27
2018-12-14T20:31:54.112Z,28.55
2018-12-14T20:34:22.712Z,25.52
2018-12-14T20:36:50.890Z,25.40
2018-12-14T20:39:20.420Z,25.08
2018-12-14T20:41:48.694Z,25.72
2018-12-14T20:44:16.911Z,33.95
2018-12-14T20:46:45.201Z,33.60
2018-12-14T20:49:14.715Z,26.77
2018-12-14T20:51:42.982Z,32.03
2018-12-14T20:54:11.251Z,25.55
2018-12-14T20:56:39.519Z,48.23
2018-12-14T20:59:07.806Z,33.10
2018-12-14T21:01:36.156Z,33.58
2018-12-14T21:04:05.588Z,30.37
2018-12-14T21:06:33.854Z,23.98
2018-12-14T21:09:03.611Z,26.12
2018-12-14T21:11:33.307Z,27.35
2018-12-14T21:14:02.864Z,25.45
2018-12-14T21:16:31.067Z,27.95
2018-12-14T21:18:59.333Z,22.10
2018-12-14T21:21:27.653Z,27.95
2018-12-14T21:23:55.919Z,26.42
2018-12-14T21:26:24.183Z,25.02
2018-12-14T21:28:52.458Z,26.05
2018-12-14T21:31:20.724Z,25.52
2018-12-14T21:33:50.242Z,26.80
2018-12-14T21:36:18.495Z,22.13
2018-12-14T21:38:46.793Z,25.30
2018-12-14T21:41:15.086Z,28.95
2018-12-14T21:43:43.322Z,25.72
2018-12-14T21:46:12.418Z,27.50
2018-12-14T21:48:40.706Z,25.88
2018-12-14T21:51:08.961Z,25.32
2018-12-14T21:53:38.095Z,23.05
2018-12-14T22:03:03.967Z,21.42
2018-12-14T22:05:49.215Z,24.15
2018-12-14T22:08:17.515Z,24.87
2018-12-14T22:10:45.762Z,21.25
2018-12-14T22:13:14.040Z,22.95
2018-12-14T22:15:42.767Z,28.47
2018-12-14T22:18:11.015Z,21.12
2018-12-14T22:20:39.270Z,24.37
2018-12-14T22:23:07.522Z,35.85
2018-12-14T22:25:36.644Z,33.50
2018-12-14T22:28:04.961Z,23.27
2018-12-14T22:30:33.238Z,20.27
2018-12-14T22:36:01.745Z,20.30
2018-12-14T22:38:29.798Z,21.68
2018-12-14T22:40:58.307Z,19.92
2018-12-14T22:43:26.537Z,16.80
2018-12-14T22:45:54.806Z,21.48
2018-12-14T22:48:23.129Z,19.25
2018-12-14T22:50:51.367Z,17.23
2018-12-14T22:53:36.422Z,19.10
2018-12-14T22:56:04.731Z,19.82
2018-12-14T22:58:33.035Z,20.92
2018-12-14T23:01:01.328Z,17.82
2018-12-14T23:03:34.863Z,21.57
2018-12-14T23:06:03.200Z,18.62
2018-12-14T23:08:31.487Z,18.42
2018-12-14T23:10:59.699Z,21.07
2018-12-14T23:13:27.948Z,17.67
2018-12-14T23:15:57.458Z,19.15
2018-12-14T23:18:25.707Z,18.57
2018-12-14T23:20:53.975Z,19.67
2018-12-14T23:23:22.324Z,23.27
2018-12-14T23:25:51.819Z,18.77
2018-12-14T23:28:21.308Z,28.30
2018-12-14T23:30:49.594Z,20.95
2018-12-14T23:33:17.904Z,18.30
2018-12-14T23:35:47.346Z,18.57
2018-12-14T23:38:16.839Z,20.50
2018-12-14T23:40:45.980Z,24.00
2018-12-14T23:43:14.222Z,23.42
2018-12-14T23:45:42.507Z,21.52
2018-12-14T23:48:10.775Z,17.77
2018-12-14T23:50:39.062Z,15.93
2018-12-14T23:53:07.331Z,17.90
2018-12-14T23:55:35.643Z,18.05
2018-12-14T23:58:03.947Z,18.30
